createdAt,value
2018-12-03T00:02:08.826Z,97.13
2018-12-03T00:04:37.954Z,80.47
2018-12-03T00:07:07.116Z,73.73
2018-12-03T00:09:36.261Z,93.47
2018-12-03T00:12:05.870Z,76.00
2018-12-03T00:14:34.941Z,83.90
2018-12-03T00:17:04.111Z,89.57
2018-12-03T00:19:33.254Z,83.03
2018-12-03T00:22:02.371Z,81.17
2018-12-03T00:24:31.502Z,91.47
2018-12-03T00:27:00.642Z,86.93
2018-12-03T00:29:29.749Z,91.77
2018-12-03T00:31:58.890Z,113.20
2018-12-03T00:34:28.056Z,101.17
2018-12-03T00:36:57.269Z,99.07
2018-12-03T00:39:26.386Z,89.43
2018-12-03T00:41:55.502Z,87.20
2018-12-03T00:44:24.657Z,108.67
2018-12-03T00:46:53.742Z,87.03
2018-12-03T00:49:22.833Z,93.80
2018-12-03T00:51:51.889Z,76.47
2018-12-03T00:54:20.965Z,70.37
2018-12-03T00:56:50.086Z,65.83
2018-12-03T00:59:19.157Z,69.00
2018-12-03T01:01:48.243Z,75.57
2018-12-03T01:04:17.375Z,69.93
2018-12-03T01:06:46.657Z,66.73
2018-12-03T01:09:16.019Z,70.77
2018-12-03T01:11:45.069Z,71.57
2018-12-03T01:14:14.125Z,73.47
2018-12-03T01:16:43.461Z,69.47
2018-12-03T01:19:12.517Z,94.43
2018-12-03T01:21:41.581Z,90.17
2018-12-03T01:24:10.667Z,99.37
2018-12-03T01:26:39.759Z,68.23
2018-12-03T01:29:08.842Z,67.13
2018-12-03T01:31:37.885Z,74.77
2018-12-03T01:34:08.162Z,67.77
2018-12-03T01:36:37.217Z,65.73
2018-12-03T01:39:08.588Z,63.97
2018-12-03T01:41:37.869Z,61.70
2018-12-03T01:44:08.133Z,58.90
2018-12-03T01:46:37.194Z,50.67
2018-12-03T01:49:06.412Z,58.47
2018-12-03T01:51:35.464Z,53.97
2018-12-03T01:54:05.259Z,56.73
2018-12-03T01:56:35.125Z,51.87
2018-12-03T01:59:04.737Z,47.47
2018-12-03T02:01:33.813Z,57.90
2018-12-03T02:04:03.061Z,60.37
2018-12-03T02:06:32.205Z,61.77
2018-12-03T02:09:01.267Z,58.37
2018-12-03T02:11:30.329Z,59.80
2018-12-03T02:13:59.434Z,54.30
2018-12-03T02:16:28.533Z,52.23
2018-12-03T02:18:57.653Z,53.33
2018-12-03T02:21:26.709Z,56.40
2018-12-03T02:23:55.761Z,59.73
2018-12-03T02:26:24.813Z,53.97
2018-12-03T02:28:53.869Z,63.47
2018-12-03T02:31:22.927Z,54.80
2018-12-03T02:33:51.983Z,57.07
2018-12-03T02:36:21.157Z,62.30
2018-12-03T02:38:50.216Z,59.80
2018-12-03T02:41:19.293Z,59.63
2018-12-03T02:43:48.429Z,55.57
2018-12-03T02:46:17.557Z,60.30
2018-12-03T02:48:46.659Z,54.20
2018-12-03T02:51:15.705Z,56.07
2018-12-03T02:53:44.762Z,47.80
2018-12-03T02:56:13.821Z,50.97
2018-12-03T02:58:42.866Z,50.57
2018-12-03T03:01:11.924Z,49.47
2018-12-03T03:03:41.006Z,53.33
2018-12-03T03:06:10.058Z,46.20
2018-12-03T03:08:39.133Z,53.43
2018-12-03T03:11:08.201Z,48.80
2018-12-03T03:13:37.287Z,46.00
2018-12-03T03:16:06.349Z,43.67
2018-12-03T03:18:35.413Z,38.30
2018-12-03T03:21:04.519Z,37.83
2018-12-03T03:23:33.605Z,35.53
2018-12-03T03:26:02.665Z,32.77
2018-12-03T03:28:31.713Z,33.50
2018-12-03T03:31:00.786Z,38.37
2018-12-03T03:33:29.855Z,32.70
2018-12-03T03:35:58.906Z,33.87
2018-12-03T03:38:27.958Z,26.90
2018-12-03T03:40:57.025Z,34.27
2018-12-03T03:43:26.086Z,43.03
2018-12-03T03:45:55.153Z,48.60
2018-12-03T03:48:24.425Z,43.93
2018-12-03T03:50:53.453Z,47.77
2018-12-03T03:53:22.518Z,53.07
2018-12-03T03:55:51.595Z,54.33
2018-12-03T03:58:20.649Z,51.63
2018-12-03T04:00:49.814Z,52.27
2018-12-03T04:03:18.861Z,54.77
2018-12-03T04:05:47.971Z,52.13
2018-12-03T04:08:17.029Z,50.97
2018-12-03T04:10:46.086Z,51.90
2018-12-03T04:13:15.180Z,48.60
2018-12-03T04:15:44.283Z,47.03
2018-12-03T04:18:13.373Z,48.23
2018-12-03T04:20:42.500Z,52.13
2018-12-03T04:23:11.542Z,58.80
2018-12-03T04:25:40.608Z,71.13
2018-12-03T04:28:09.654Z,59.20
2018-12-03T04:30:38.714Z,51.13
2018-12-03T04:33:07.770Z,45.83
2018-12-03T04:35:36.822Z,43.63
2018-12-03T04:38:05.941Z,51.97
2018-12-03T04:40:34.993Z,43.97
2018-12-03T04:43:04.120Z,44.83
2018-12-03T04:45:33.178Z,42.73
2018-12-03T04:48:02.242Z,40.30
2018-12-03T04:50:31.345Z,38.50
2018-12-03T04:53:00.670Z,43.37
2018-12-03T04:55:29.717Z,42.50
2018-12-03T04:57:58.793Z,54.67
2018-12-03T05:00:27.857Z,49.30
2018-12-03T05:02:56.931Z,47.67
2018-12-03T05:05:25.978Z,50.13
2018-12-03T05:07:55.016Z,49.00
2018-12-03T05:10:24.065Z,45.70
2018-12-03T05:12:53.886Z,40.87
2018-12-03T05:15:22.941Z,46.40
2018-12-03T05:17:52.011Z,42.17
2018-12-03T05:20:23.469Z,43.77
2018-12-03T05:22:52.633Z,42.80
2018-12-03T05:25:21.693Z,39.47
2018-12-03T05:27:50.757Z,40.70
2018-12-03T05:30:19.801Z,36.40
2018-12-03T05:32:48.872Z,31.37
2018-12-03T05:35:21.428Z,32.00
2018-12-03T05:37:50.882Z,29.87
2018-12-03T05:40:22.698Z,34.87
2018-12-03T05:42:51.833Z,40.17
2018-12-03T05:45:20.869Z,38.70
2018-12-03T05:47:49.942Z,36.37
2018-12-03T05:50:18.999Z,38.57
2018-12-03T05:52:48.517Z,33.37
2018-12-03T05:55:17.573Z,36.93
2018-12-03T05:57:46.741Z,34.67
2018-12-03T06:00:20.542Z,37.23
2018-12-03T06:02:49.616Z,35.60
2018-12-03T06:05:18.730Z,31.07
2018-12-03T06:07:47.918Z,33.33
2018-12-03T06:10:18.321Z,34.40
2018-12-03T06:12:47.489Z,37.83
2018-12-03T06:15:17.512Z,34.83
2018-12-03T06:17:47.579Z,30.57
2018-12-03T06:20:17.737Z,36.07
2018-12-03T06:22:47.462Z,32.53
2018-12-03T06:25:19.012Z,35.37
2018-12-03T06:27:48.085Z,35.30
2018-12-03T06:30:18.677Z,37.33
2018-12-03T06:32:47.813Z,36.03
2018-12-03T06:35:17.450Z,41.73
2018-12-03T06:37:46.677Z,47.30
2018-12-03T06:40:17.077Z,48.37
2018-12-03T06:42:46.180Z,45.60
2018-12-03T06:45:16.578Z,45.67
2018-12-03T06:47:48.757Z,42.10
2018-12-03T06:50:17.821Z,42.13
2018-12-03T06:52:46.905Z,39.53
2018-12-03T06:55:15.999Z,43.50
2018-12-03T06:57:45.071Z,41.47
2018-12-03T07:00:16.499Z,45.53
2018-12-03T07:02:45.598Z,63.37
2018-12-03T07:05:14.717Z,41.40
2018-12-03T07:07:45.051Z,41.97
2018-12-03T07:10:18.261Z,55.43
2018-12-03T07:12:48.822Z,48.87
2018-12-03T07:15:19.355Z,58.37
2018-12-03T07:17:49.005Z,50.63
2018-12-03T07:20:18.017Z,41.13
2018-12-03T07:22:47.072Z,39.33
2018-12-03T07:25:16.146Z,37.70
2018-12-03T07:27:45.210Z,39.50
2018-12-03T07:30:22.203Z,37.47
2018-12-03T07:32:51.993Z,37.10
2018-12-03T07:35:21.941Z,48.60
2018-12-03T07:37:52.262Z,45.13
2018-12-03T07:40:21.597Z,48.27
2018-12-03T07:42:50.717Z,48.50
2018-12-03T07:45:22.045Z,49.83
2018-12-03T07:47:51.122Z,44.37
2018-12-03T07:50:22.371Z,48.57
2018-12-03T07:52:51.576Z,49.00
2018-12-03T07:55:22.818Z,46.13
2018-12-03T07:57:59.862Z,39.87
2018-12-03T08:00:32.765Z,42.27
2018-12-03T08:03:01.828Z,51.70
2018-12-03T08:05:30.938Z,57.60
2018-12-03T08:08:00.098Z,70.07
2018-12-03T08:10:29.149Z,66.00
2018-12-03T08:12:58.214Z,58.83
2018-12-03T08:15:27.289Z,62.43
2018-12-03T08:18:02.059Z,61.17
2018-12-03T08:20:36.764Z,59.70
2018-12-03T08:23:10.409Z,55.43
2018-12-03T08:25:39.709Z,50.73
2018-12-03T08:28:08.785Z,50.30
2018-12-03T08:30:37.833Z,47.77
2018-12-03T08:33:07.018Z,55.27
2018-12-03T08:35:36.409Z,54.70
2018-12-03T08:38:05.753Z,46.23
2018-12-03T08:40:34.810Z,46.30
2018-12-03T08:43:03.913Z,49.47
2018-12-03T08:45:32.962Z,48.43
2018-12-03T08:48:02.050Z,47.17
2018-12-03T08:50:31.128Z,37.47
2018-12-03T08:53:00.313Z,34.63
2018-12-03T08:55:29.385Z,36.43
2018-12-03T08:57:58.514Z,34.83
2018-12-03T09:00:29.777Z,33.33
2018-12-03T09:03:07.828Z,31.33
2018-12-03T09:05:38.494Z,29.27
2018-12-03T09:08:09.056Z,25.70
2018-12-03T09:10:38.816Z,28.20
2018-12-03T09:13:13.275Z,28.07
2018-12-03T09:15:42.453Z,27.03
2018-12-03T09:18:11.597Z,24.90
2018-12-03T09:20:40.660Z,32.43
2018-12-03T09:23:09.722Z,41.03
2018-12-03T09:25:38.801Z,46.33
2018-12-03T09:28:07.864Z,50.70
2018-12-03T09:30:36.942Z,46.50
2018-12-03T09:33:06.341Z,36.63
2018-12-03T09:35:35.421Z,32.87
2018-12-03T09:38:04.513Z,31.70
2018-12-03T09:40:33.873Z,30.80
2018-12-03T09:43:02.926Z,28.63
2018-12-03T09:45:32.085Z,29.30
2018-12-03T09:48:01.160Z,30.33
2018-12-03T09:50:30.249Z,32.20
2018-12-03T09:52:59.332Z,30.13
2018-12-03T09:55:30.034Z,30.90
2018-12-03T09:58:05.228Z,31.37
2018-12-03T10:00:34.300Z,29.40
2018-12-03T10:03:06.353Z,39.43
2018-12-03T10:05:48.709Z,40.53
2018-12-03T10:08:17.869Z,36.87
2018-12-03T10:10:50.521Z,33.53
2018-12-03T10:13:19.614Z,36.00
2018-12-03T10:15:48.961Z,36.77
2018-12-03T10:18:18.051Z,28.83
2018-12-03T10:20:52.966Z,26.40
2018-12-03T10:23:22.233Z,26.63
2018-12-03T10:25:53.197Z,24.63
2018-12-03T10:28:22.332Z,24.33
2018-12-03T10:30:52.703Z,23.77
2018-12-03T10:33:25.197Z,24.23
2018-12-03T10:35:54.352Z,22.57
2018-12-03T10:38:26.248Z,22.20
2018-12-03T10:41:00.548Z,30.37
2018-12-03T10:43:29.665Z,13.70
2018-12-03T10:45:58.709Z,18.53
2018-12-03T10:48:27.833Z,16.90
2018-12-03T10:50:56.881Z,15.37
2018-12-03T10:53:30.659Z,23.17
2018-12-03T10:55:59.828Z,28.83
2018-12-03T10:58:34.051Z,22.63
2018-12-03T11:01:11.391Z,37.47
2018-12-03T11:03:45.665Z,34.40
2018-12-03T11:06:18.600Z,28.07
2018-12-03T11:08:48.037Z,50.77
2018-12-03T11:11:17.135Z,30.27
2018-12-03T11:13:46.219Z,107.17
2018-12-03T11:16:27.825Z,56.40
2018-12-03T11:18:57.273Z,30.63
2018-12-03T11:21:26.963Z,27.30
2018-12-03T11:23:56.051Z,17.23
2018-12-03T11:26:34.858Z,16.67
2018-12-03T11:29:04.681Z,15.47
2018-12-03T11:31:34.520Z,14.77
2018-12-03T11:34:03.857Z,12.40
2018-12-03T11:36:37.226Z,14.73
2018-12-03T11:39:24.398Z,13.10
2018-12-03T11:41:56.466Z,13.53
2018-12-03T11:44:25.542Z,23.63
2018-12-03T11:46:54.625Z,26.70
2018-12-03T11:49:24.658Z,19.10
2018-12-03T11:51:53.753Z,17.23
2018-12-03T11:54:22.833Z,17.47
2018-12-03T11:56:51.949Z,16.53
2018-12-03T11:59:21.062Z,17.60
2018-12-03T12:01:50.170Z,15.43
2018-12-03T12:04:19.233Z,13.47
2018-12-03T12:06:48.301Z,12.87
2018-12-03T12:09:21.014Z,12.97
2018-12-03T12:11:46.778Z,15.10
2018-12-03T12:14:19.393Z,15.67
2018-12-03T12:16:48.498Z,12.23
2018-12-03T12:19:17.558Z,13.40
2018-12-03T12:21:46.916Z,16.73
2018-12-03T12:24:15.981Z,12.43
2018-12-03T12:26:45.138Z,26.47
2018-12-03T12:29:14.303Z,50.63
2018-12-03T12:31:43.357Z,29.53
2018-12-03T12:34:12.490Z,23.23
2018-12-03T12:36:41.545Z,13.27
2018-12-03T12:39:10.943Z,15.90
2018-12-03T12:41:41.209Z,12.00
2018-12-03T12:44:11.397Z,14.23
2018-12-03T12:46:42.881Z,12.13
2018-12-03T12:49:11.937Z,12.77
2018-12-03T12:51:41.097Z,11.97
2018-12-03T12:54:10.177Z,11.83
2018-12-03T12:56:39.254Z,10.93
2018-12-03T12:59:08.350Z,10.83
2018-12-03T13:01:37.410Z,11.90
2018-12-03T13:04:07.919Z,10.67
2018-12-03T13:06:36.994Z,11.93
2018-12-03T13:09:10.300Z,10.93
2018-12-03T13:11:40.284Z,9.50
2018-12-03T13:14:11.597Z,10.67
2018-12-03T13:16:40.705Z,11.13
2018-12-03T13:19:10.213Z,10.90
2018-12-03T13:21:39.339Z,11.23
2018-12-03T13:24:08.548Z,10.20
2018-12-03T13:26:40.045Z,9.97
2018-12-03T13:29:09.121Z,10.23
2018-12-03T13:31:38.337Z,9.23
2018-12-03T13:34:08.550Z,11.23
2018-12-03T13:36:37.627Z,14.33
2018-12-03T13:39:09.379Z,11.10
2018-12-03T13:41:38.472Z,11.40
2018-12-03T13:44:08.772Z,11.80
2018-12-03T13:46:37.967Z,12.30
2018-12-03T13:49:07.858Z,14.77
2018-12-03T13:51:36.954Z,12.87
2018-12-03T13:54:07.333Z,10.43
2018-12-03T13:57:06.217Z,10.30
2018-12-03T13:59:35.705Z,10.90
2018-12-03T14:02:07.217Z,11.07
2018-12-03T14:04:36.921Z,13.87
2018-12-03T14:07:11.113Z,10.37
2018-12-03T14:09:48.009Z,13.40
2018-12-03T14:12:29.109Z,11.17
2018-12-03T14:17:10.881Z,12.77
2018-12-03T14:19:42.349Z,13.03
2018-12-03T14:22:16.681Z,9.83
2018-12-03T14:24:46.205Z,9.10
2018-12-03T14:27:15.674Z,9.50
2018-12-03T14:29:45.143Z,10.50
2018-12-03T14:32:14.522Z,59.47
2018-12-03T14:34:43.919Z,47.60
2018-12-03T14:37:13.286Z,31.30
2018-12-03T14:39:42.662Z,55.90
2018-12-03T14:42:12.129Z,32.10
2018-12-03T14:44:41.541Z,25.13
2018-12-03T14:47:10.913Z,17.40
2018-12-03T14:49:40.316Z,18.80
2018-12-03T14:52:10.633Z,19.80
2018-12-03T14:54:40.282Z,18.47
2018-12-03T14:57:09.647Z,14.60
2018-12-03T14:59:39.193Z,14.50
2018-12-03T15:02:08.686Z,17.30
2018-12-03T15:04:38.709Z,18.27
2018-12-03T15:07:08.073Z,21.70
2018-12-03T15:09:37.455Z,23.77
2018-12-03T15:12:06.934Z,29.50
2018-12-03T15:14:36.305Z,32.80
2018-12-03T15:17:05.685Z,63.77
2018-12-03T15:19:35.073Z,42.93
2018-12-03T15:22:04.525Z,33.17
2018-12-03T15:24:33.901Z,30.47
2018-12-03T15:27:03.269Z,41.07
2018-12-03T15:29:32.711Z,45.07
2018-12-03T15:32:02.076Z,24.10
2018-12-03T15:34:31.554Z,31.17
2018-12-03T15:37:00.924Z,22.40
2018-12-03T15:39:30.277Z,17.90
2018-12-03T15:41:59.645Z,22.37
2018-12-03T15:44:29.014Z,20.10
2018-12-03T15:46:58.470Z,23.83
2018-12-03T15:49:27.841Z,22.73
2018-12-03T15:51:57.215Z,25.40
2018-12-03T15:54:26.689Z,20.90
2018-12-03T15:56:56.073Z,18.83
2018-12-03T15:59:25.458Z,26.53
2018-12-03T16:01:54.877Z,29.90
2018-12-03T16:04:24.249Z,25.87
2018-12-03T16:06:53.625Z,24.27
2018-12-03T16:09:23.326Z,29.37
2018-12-03T16:11:52.685Z,29.43
2018-12-03T16:14:22.056Z,21.00
2018-12-03T16:16:51.413Z,17.50
2018-12-03T16:19:20.885Z,17.23
2018-12-03T16:21:50.402Z,18.00
2018-12-03T16:24:19.804Z,20.70
2018-12-03T16:26:49.215Z,21.37
2018-12-03T16:29:18.576Z,22.37
2018-12-03T16:31:47.946Z,22.73
2018-12-03T16:34:17.437Z,21.03
2018-12-03T16:36:46.893Z,24.47
2018-12-03T16:39:16.289Z,16.97
2018-12-03T16:41:45.657Z,18.30
2018-12-03T16:44:15.130Z,16.20
2018-12-03T16:46:44.599Z,33.77
2018-12-03T16:49:14.074Z,89.23
2018-12-03T16:51:43.546Z,89.00
2018-12-03T16:54:13.014Z,49.20
2018-12-03T16:56:42.389Z,53.33
2018-12-03T16:59:11.842Z,30.33
2018-12-03T17:01:41.219Z,37.67
2018-12-03T17:04:10.825Z,28.93
2018-12-03T17:06:40.253Z,57.63
2018-12-03T17:09:10.586Z,27.07
2018-12-03T17:11:40.840Z,51.63
2018-12-03T17:14:10.317Z,151.07
2018-12-03T17:16:39.771Z,63.30
2018-12-03T17:19:09.114Z,69.73
2018-12-03T17:22:15.764Z,60.53
2018-12-03T17:24:46.137Z,48.27
2018-12-03T17:27:15.510Z,73.20
2018-12-03T17:29:45.005Z,84.57
2018-12-03T17:32:14.360Z,61.70
2018-12-03T17:34:48.752Z,49.07
2018-12-03T17:37:21.726Z,34.53
2018-12-03T17:39:51.206Z,30.00
2018-12-03T17:42:20.560Z,86.50
2018-12-03T17:44:50.425Z,25.60
2018-12-03T17:47:19.854Z,19.57
2018-12-03T17:49:49.208Z,17.57
2018-12-03T17:52:18.613Z,14.27
2018-12-03T17:54:48.069Z,13.50
2018-12-03T17:57:17.437Z,13.97
2018-12-03T17:59:46.776Z,14.17
2018-12-03T18:02:16.293Z,17.30
2018-12-03T18:04:45.673Z,17.93
2018-12-03T18:07:15.165Z,18.60
2018-12-03T18:09:44.668Z,18.60
2018-12-03T18:12:14.032Z,20.10
2018-12-03T18:14:43.518Z,23.70
2018-12-03T18:17:14.016Z,20.73
2018-12-03T18:19:49.229Z,22.97
2018-12-03T18:22:18.589Z,22.67
2018-12-03T18:24:48.165Z,25.90
2018-12-03T18:27:17.505Z,29.77
2018-12-03T18:29:47.046Z,25.77
2018-12-03T18:32:16.413Z,25.13
2018-12-03T18:34:45.921Z,25.27
2018-12-03T18:37:15.444Z,24.50
2018-12-03T18:39:44.998Z,36.73
2018-12-03T18:42:14.393Z,27.57
2018-12-03T18:44:43.818Z,34.43
2018-12-03T18:47:13.365Z,23.33
2018-12-03T18:49:46.018Z,28.77
2018-12-03T18:52:16.857Z,27.63
2018-12-03T18:54:46.264Z,27.27
2018-12-03T18:57:15.705Z,27.30
2018-12-03T18:59:45.265Z,24.00
2018-12-03T19:02:14.953Z,28.37
2018-12-03T19:04:44.773Z,26.17
2018-12-03T19:07:14.245Z,25.93
2018-12-03T19:09:43.610Z,26.77
2018-12-03T19:12:13.050Z,26.63
2018-12-03T19:14:42.541Z,26.40
2018-12-03T19:17:11.929Z,24.70
2018-12-03T19:19:41.305Z,26.70
2018-12-03T19:22:10.758Z,27.43
2018-12-03T19:24:40.397Z,27.20
2018-12-03T19:27:09.889Z,28.83
2018-12-03T19:29:39.381Z,26.60
2018-12-03T19:32:08.910Z,25.77
2018-12-03T19:34:38.727Z,30.93
2018-12-03T19:37:08.099Z,31.53
2018-12-03T19:39:37.490Z,118.30
2018-12-03T19:42:06.950Z,84.23
2018-12-03T19:44:36.506Z,36.50
2018-12-03T19:47:06.412Z,29.07
2018-12-03T19:49:35.842Z,26.70
2018-12-03T19:52:05.398Z,26.03
2018-12-03T19:54:34.766Z,29.47
2018-12-03T19:57:05.731Z,29.63
2018-12-03T19:59:39.446Z,26.43
2018-12-03T20:02:08.889Z,27.17
2018-12-03T20:04:44.316Z,29.93
2018-12-03T20:07:14.229Z,30.53
2018-12-03T20:09:43.753Z,27.73
2018-12-03T20:12:13.438Z,26.73
2018-12-03T20:14:43.160Z,26.03
2018-12-03T20:17:18.109Z,26.80
2018-12-03T20:19:47.774Z,27.30
2018-12-03T20:22:17.525Z,29.37
2018-12-03T20:24:47.436Z,28.57
2018-12-03T20:27:21.982Z,31.53
2018-12-03T20:30:05.302Z,110.87
2018-12-03T20:32:55.145Z,54.60
2018-12-03T20:35:31.284Z,37.73
2018-12-03T20:38:23.169Z,27.93
2018-12-03T20:41:02.481Z,26.03
2018-12-03T20:43:32.762Z,27.67
2018-12-03T20:46:12.667Z,26.53
2018-12-03T20:48:58.101Z,26.17
2018-12-03T20:51:33.502Z,27.90
2018-12-03T20:54:02.882Z,27.33
2018-12-03T20:56:32.377Z,26.73
2018-12-03T20:59:01.729Z,24.53
2018-12-03T21:01:32.615Z,24.77
2018-12-03T21:04:01.993Z,23.97
2018-12-03T21:06:31.358Z,25.17
2018-12-03T21:09:00.742Z,27.27
2018-12-03T21:11:30.169Z,182.47
2018-12-03T21:13:59.781Z,50.87
2018-12-03T21:16:29.604Z,26.00
2018-12-03T21:18:58.969Z,22.47
2018-12-03T21:21:29.197Z,22.73
2018-12-03T21:23:58.551Z,25.00
2018-12-03T21:26:27.980Z,22.33
2018-12-03T21:28:59.105Z,22.10
2018-12-03T21:31:28.818Z,22.07
2018-12-03T21:33:58.193Z,25.60
2018-12-03T21:36:27.572Z,31.50
2018-12-03T21:38:57.077Z,38.03
2018-12-03T21:41:26.469Z,30.67
2018-12-03T21:43:55.989Z,29.03
2018-12-03T21:46:25.455Z,31.70
2018-12-03T21:48:54.886Z,32.60
2018-12-03T21:51:24.509Z,32.73
2018-12-03T21:53:54.103Z,26.57
2018-12-03T21:56:23.442Z,44.60
2018-12-03T21:58:52.909Z,30.67
2018-12-03T22:01:22.382Z,26.77
2018-12-03T22:03:51.768Z,26.27
2018-12-03T22:06:21.174Z,24.40
2018-12-03T22:08:50.537Z,22.53
2018-12-03T22:11:20.021Z,29.40
2018-12-03T22:13:49.489Z,29.50
2018-12-03T22:16:18.854Z,28.93
2018-12-03T22:18:48.225Z,27.57
2018-12-03T22:21:17.738Z,28.93
2018-12-03T22:23:47.118Z,29.10
2018-12-03T22:26:16.585Z,29.53
2018-12-03T22:28:45.961Z,28.97
2018-12-03T22:31:15.456Z,27.33
2018-12-03T22:33:44.923Z,29.33
2018-12-03T22:36:14.315Z,25.87
2018-12-03T22:38:43.693Z,23.30
2018-12-03T22:41:13.064Z,25.60
2018-12-03T22:43:42.517Z,23.20
2018-12-03T22:46:11.925Z,58.10
2018-12-03T22:48:41.282Z,49.20
2018-12-03T22:51:10.704Z,35.63
2018-12-03T22:53:40.099Z,25.40
2018-12-03T22:56:09.489Z,24.00
2018-12-03T22:58:38.973Z,23.37
2018-12-03T23:01:09.146Z,24.00
2018-12-03T23:03:38.433Z,22.87
2018-12-03T23:06:07.862Z,22.20
2018-12-03T23:08:37.245Z,21.23
2018-12-03T23:11:06.645Z,19.90
2018-12-03T23:13:36.037Z,20.60
2018-12-03T23:16:05.413Z,21.40
2018-12-03T23:18:34.895Z,23.30
2018-12-03T23:21:04.289Z,22.13
2018-12-03T23:23:33.661Z,23.00
2018-12-03T23:26:03.042Z,19.83
2018-12-03T23:28:32.786Z,23.90
2018-12-03T23:31:02.158Z,25.10
2018-12-03T23:33:31.534Z,28.37
2018-12-03T23:36:00.930Z,41.83
2018-12-03T23:38:30.427Z,32.40
2018-12-03T23:40:59.849Z,31.07
2018-12-03T23:43:29.227Z,25.33
2018-12-03T23:45:58.706Z,24.07
2018-12-03T23:48:28.077Z,27.87
2018-12-03T23:50:57.453Z,27.00
2018-12-03T23:53:26.925Z,26.80
2018-12-03T23:55:56.395Z,34.30
2018-12-03T23:58:25.809Z,27.73
